sensor_id;sensor_type;location;lat;lon;timestamp;pressure;altitude;pressure_sealevel;temperature;humidity
79586;BME280;69054;50.866;4.636;2023-11-22T00:00:22;102203.47;;;2.89;100.00
79586;BME280;69054;50.866;4.636;2023-11-22T00:02:47;102210.06;;;2.97;100.00
79586;BME280;69054;50.866;4.636;2023-11-22T00:05:13;102192.69;;;2.89;100.00
79586;BME280;69054;50.866;4.636;2023-11-22T00:07:38;102192.78;;;2.87;100.00
79586;BME280;69054;50.866;4.636;2023-11-22T00:10:04;102195.94;;;2.81;100.00
79586;BME280;69054;50.866;4.636;2023-11-22T00:12:30;102200.81;;;2.76;100.00
79586;BME280;69054;50.866;4.636;2023-11-22T00:15:05;102195.50;;;2.87;100.00
79586;BME280;69054;50.866;4.636;2023-11-22T00:17:32;102188.47;;;2.97;100.00
79586;BME280;69054;50.866;4.636;2023-11-22T00:19:58;102191.78;;;3.14;100.00
79586;BME280;69054;50.866;4.636;2023-11-22T00:22:25;102193.06;;;3.21;100.00
79586;BME280;69054;50.866;4.636;2023-11-22T00:24:52;102198.75;;;3.29;100.00
79586;BME280;69054;50.866;4.636;2023-11-22T00:27:18;102208.47;;;3.32;100.00
79586;BME280;69054;50.866;4.636;2023-11-22T00:29:43;102199.00;;;3.37;100.00
79586;BME280;69054;50.866;4.636;2023-11-22T00:32:08;102202.88;;;3.46;100.00
79586;BME280;69054;50.866;4.636;2023-11-22T00:34:34;102206.84;;;3.53;100.00
79586;BME280;69054;50.866;4.636;2023-11-22T00:36:59;102206.50;;;3.58;100.00
79586;BME280;69054;50.866;4.636;2023-11-22T00:39:25;102217.72;;;3.65;100.00
79586;BME280;69054;50.866;4.636;2023-11-22T00:41:50;102216.84;;;3.64;100.00
79586;BME280;69054;50.866;4.636;2023-11-22T00:44:15;102215.88;;;3.65;100.00
79586;BME280;69054;50.866;4.636;2023-11-22T00:46:41;102217.28;;;3.71;100.00
79586;BME280;69054;50.866;4.636;2023-11-22T00:49:07;102218.38;;;3.68;100.00
79586;BME280;69054;50.866;4.636;2023-11-22T00:51:33;102226.47;;;3.68;100.00
79586;BME280;69054;50.866;4.636;2023-11-22T00:53:59;102233.50;;;3.71;100.00
79586;BME280;69054;50.866;4.636;2023-11-22T00:56:25;102232.63;;;3.70;100.00
79586;BME280;69054;50.866;4.636;2023-11-22T00:58:52;102228.81;;;3.73;100.00
79586;BME280;69054;50.866;4.636;2023-11-22T01:01:19;102223.06;;;3.78;100.00
79586;BME280;69054;50.866;4.636;2023-11-22T01:03:44;102233.03;;;3.77;100.00
79586;BME280;69054;50.866;4.636;2023-11-22T01:06:09;102244.69;;;3.78;100.00
79586;BME280;69054;50.866;4.636;2023-11-22T01:08:35;102235.84;;;3.76;100.00
79586;BME280;69054;50.866;4.636;2023-11-22T01:11:01;102231.66;;;3.71;100.00
79586;BME280;69054;50.866;4.636;2023-11-22T01:13:29;102222.56;;;3.72;100.00
79586;BME280;69054;50.866;4.636;2023-11-22T01:15:54;102234.75;;;3.78;100.00
79586;BME280;69054;50.866;4.636;2023-11-22T01:18:19;102234.97;;;3.75;100.00
79586;BME280;69054;50.866;4.636;2023-11-22T01:20:45;102249.38;;;3.76;100.00
79586;BME280;69054;50.866;4.636;2023-11-22T01:23:10;102241.38;;;3.74;100.00
79586;BME280;69054;50.866;4.636;2023-11-22T01:25:36;102245.16;;;3.71;100.00
79586;BME280;69054;50.866;4.636;2023-11-22T01:28:01;102250.03;;;3.66;100.00
79586;BME280;69054;50.866;4.636;2023-11-22T01:30:27;102254.47;;;3.67;100.00
79586;BME280;69054;50.866;4.636;2023-11-22T01:32:54;102258.38;;;3.63;100.00
79586;BME280;69054;50.866;4.636;2023-11-22T01:35:20;102257.75;;;3.60;100.00
79586;BME280;69054;50.866;4.636;2023-11-22T01:37:46;102270.66;;;3.56;100.00
79586;BME280;69054;50.866;4.636;2023-11-22T01:40:11;102283.06;;;3.59;100.00
79586;BME280;69054;50.866;4.636;2023-11-22T01:42:38;102284.78;;;3.60;100.00
79586;BME280;69054;50.866;4.636;2023-11-22T01:45:08;102280.22;;;3.60;100.00
79586;BME280;69054;50.866;4.636;2023-11-22T01:47:35;102289.34;;;3.59;100.00
79586;BME280;69054;50.866;4.636;2023-11-22T01:50:03;102289.97;;;3.63;100.00
79586;BME280;69054;50.866;4.636;2023-11-22T01:52:30;102300.66;;;3.64;100.00
79586;BME280;69054;50.866;4.636;2023-11-22T01:54:55;102308.16;;;3.61;100.00
79586;BME280;69054;50.866;4.636;2023-11-22T01:57:21;102310.84;;;3.61;100.00
79586;BME280;69054;50.866;4.636;2023-11-22T01:59:46;102320.66;;;3.62;100.00
79586;BME280;69054;50.866;4.636;2023-11-22T02:02:12;102314.53;;;3.60;100.00
79586;BME280;69054;50.866;4.636;2023-11-22T02:04:38;102314.41;;;3.61;100.00
79586;BME280;69054;50.866;4.636;2023-11-22T02:07:04;102312.66;;;3.60;100.00
79586;BME280;69054;50.866;4.636;2023-11-22T02:09:30;102316.16;;;3.62;100.00
79586;BME280;69054;50.866;4.636;2023-11-22T02:11:55;102322.63;;;3.60;100.00
79586;BME280;69054;50.866;4.636;2023-11-22T02:14:20;102316.16;;;3.62;100.00
79586;BME280;69054;50.866;4.636;2023-11-22T02:16:46;102318.31;;;3.57;100.00
79586;BME280;69054;50.866;4.636;2023-11-22T02:19:15;102314.63;;;3.58;100.00
79586;BME280;69054;50.866;4.636;2023-11-22T02:21:42;102299.28;;;3.59;100.00
79586;BME280;69054;50.866;4.636;2023-11-22T02:24:07;102311.31;;;3.54;100.00
79586;BME280;69054;50.866;4.636;2023-11-22T02:26:33;102304.06;;;3.55;100.00
79586;BME280;69054;50.866;4.636;2023-11-22T02:28:59;102298.66;;;3.55;100.00
79586;BME280;69054;50.866;4.636;2023-11-22T02:31:24;102303.19;;;3.54;100.00
79586;BME280;69054;50.866;4.636;2023-11-22T02:33:50;102296.91;;;3.54;100.00
79586;BME280;69054;50.866;4.636;2023-11-22T02:36:15;102297.91;;;3.53;100.00
79586;BME280;69054;50.866;4.636;2023-11-22T02:38:41;102304.91;;;3.55;100.00
79586;BME280;69054;50.866;4.636;2023-11-22T02:41:07;102302.31;;;3.54;100.00
79586;BME280;69054;50.866;4.636;2023-11-22T02:43:34;102306.00;;;3.53;100.00
79586;BME280;69054;50.866;4.636;2023-11-22T02:46:00;102316.81;;;3.53;100.00
79586;BME280;69054;50.866;4.636;2023-11-22T02:48:26;102316.81;;;3.53;100.00
79586;BME280;69054;50.866;4.636;2023-11-22T02:50:51;102316.59;;;3.56;100.00
79586;BME280;69054;50.866;4.636;2023-11-22T02:53:19;102332.03;;;3.54;100.00
79586;BME280;69054;50.866;4.636;2023-11-22T02:55:44;102331.81;;;3.57;100.00
79586;BME280;69054;50.866;4.636;2023-11-22T02:58:10;102340.16;;;3.54;100.00
79586;BME280;69054;50.866;4.636;2023-11-22T03:00:37;102338.44;;;3.53;100.00
79586;BME280;69054;50.866;4.636;2023-11-22T03:03:03;102324.50;;;3.46;100.00
79586;BME280;69054;50.866;4.636;2023-11-22T03:05:30;102326.00;;;3.50;100.00
79586;BME280;69054;50.866;4.636;2023-11-22T03:07:59;102321.47;;;3.51;100.00
79586;BME280;69054;50.866;4.636;2023-11-22T03:10:24;102326.13;;;3.49;100.00
79586;BME280;69054;50.866;4.636;2023-11-22T03:12:49;102325.91;;;3.52;100.00
79586;BME280;69054;50.866;4.636;2023-11-22T03:15:15;102327.09;;;3.48;100.00
79586;BME280;69054;50.866;4.636;2023-11-22T03:17:40;102320.84;;;3.47;100.00
79586;BME280;69054;50.866;4.636;2023-11-22T03:20:06;102323.75;;;3.44;100.00
79586;BME280;69054;50.866;4.636;2023-11-22T03:22:36;102330.03;;;3.45;100.00
79586;BME280;69054;50.866;4.636;2023-11-22T03:25:03;102323.88;;;3.43;100.00
79586;BME280;69054;50.866;4.636;2023-11-22T03:27:29;102325.63;;;3.44;100.00
79586;BME280;69054;50.866;4.636;2023-11-22T03:29:54;102323.00;;;3.42;100.00
79586;BME280;69054;50.866;4.636;2023-11-22T03:32:20;102319.44;;;3.42;100.00
79586;BME280;69054;50.866;4.636;2023-11-22T03:34:45;102327.25;;;3.33;100.00
79586;BME280;69054;50.866;4.636;2023-11-22T03:37:11;102320.53;;;3.26;100.00
79586;BME280;69054;50.866;4.636;2023-11-22T03:39:36;102312.34;;;3.15;100.00
79586;BME280;69054;50.866;4.636;2023-11-22T03:42:03;102310.06;;;3.09;100.00
79586;BME280;69054;50.866;4.636;2023-11-22T03:44:28;102320.03;;;2.95;100.00
79586;BME280;69054;50.866;4.636;2023-11-22T03:46:55;102324.78;;;2.79;100.00
79586;BME280;69054;50.866;4.636;2023-11-22T03:49:20;102329.84;;;2.58;100.00
79586;BME280;69054;50.866;4.636;2023-11-22T03:51:47;102329.44;;;2.24;100.00
79586;BME280;69054;50.866;4.636;2023-11-22T03:54:13;102329.66;;;1.93;100.00
79586;BME280;69054;50.866;4.636;2023-11-22T03:56:38;102327.72;;;1.68;100.00
79586;BME280;69054;50.866;4.636;2023-11-22T03:59:04;102336.31;;;1.46;100.00
79586;BME280;69054;50.866;4.636;2023-11-22T04:01:29;102338.56;;;1.25;100.00
79586;BME280;69054;50.866;4.636;2023-11-22T04:03:56;102349.03;;;1.01;100.00
79586;BME280;69054;50.866;4.636;2023-11-22T04:06:21;102358.91;;;0.86;100.00
79586;BME280;69054;50.866;4.636;2023-11-22T04:08:48;102362.25;;;0.75;100.00
79586;BME280;69054;50.866;4.636;2023-11-22T04:11:14;102364.19;;;0.73;100.00
79586;BME280;69054;50.866;4.636;2023-11-22T04:13:39;102367.47;;;0.78;100.00
79586;BME280;69054;50.866;4.636;2023-11-22T04:16:06;102375.06;;;0.86;100.00
79586;BME280;69054;50.866;4.636;2023-11-22T04:18:34;102377.59;;;1.03;100.00
79586;BME280;69054;50.866;4.636;2023-11-22T04:21:01;102381.84;;;1.22;100.00
79586;BME280;69054;50.866;4.636;2023-11-22T04:23:26;102373.28;;;1.30;100.00
79586;BME280;69054;50.866;4.636;2023-11-22T04:25:52;102384.75;;;1.33;100.00
79586;BME280;69054;50.866;4.636;2023-11-22T04:28:17;102394.16;;;1.26;100.00
79586;BME280;69054;50.866;4.636;2023-11-22T04:30:43;102406.16;;;1.20;100.00
79586;BME280;69054;50.866;4.636;2023-11-22T04:33:08;102406.16;;;1.20;100.00
79586;BME280;69054;50.866;4.636;2023-11-22T04:35:34;102417.91;;;1.48;100.00
79586;BME280;69054;50.866;4.636;2023-11-22T04:38:02;102420.91;;;1.58;100.00
79586;BME280;69054;50.866;4.636;2023-11-22T04:40:29;102428.00;;;1.73;100.00
79586;BME280;69054;50.866;4.636;2023-11-22T04:42:54;102428.66;;;1.91;100.00
79586;BME280;69054;50.866;4.636;2023-11-22T04:45:20;102421.72;;;2.02;100.00
79586;BME280;69054;50.866;4.636;2023-11-22T04:47:45;102433.53;;;2.13;100.00
79586;BME280;69054;50.866;4.636;2023-11-22T04:50:10;102432.25;;;2.19;100.00
79586;BME280;69054;50.866;4.636;2023-11-22T04:52:36;102438.53;;;2.20;100.00
79586;BME280;69054;50.866;4.636;2023-11-22T04:55:01;102439.38;;;2.20;100.00
79586;BME280;69054;50.866;4.636;2023-11-22T04:57:27;102448.44;;;2.19;100.00
79586;BME280;69054;50.866;4.636;2023-11-22T04:59:52;102433.34;;;2.17;100.00
79586;BME280;69054;50.866;4.636;2023-11-22T05:02:18;102438.63;;;2.18;100.00
79586;BME280;69054;50.866;4.636;2023-11-22T05:04:44;102438.22;;;2.24;100.00
79586;BME280;69054;50.866;4.636;2023-11-22T05:07:14;102440.03;;;2.24;100.00
79586;BME280;69054;50.866;4.636;2023-11-22T05:09:39;102445.91;;;2.30;100.00
79586;BME280;69054;50.866;4.636;2023-11-22T05:12:05;102446.56;;;2.34;100.00
79586;BME280;69054;50.866;4.636;2023-11-22T05:14:30;102450.78;;;2.38;100.00
79586;BME280;69054;50.866;4.636;2023-11-22T05:16:56;102451.25;;;2.45;100.00
79586;BME280;69054;50.866;4.636;2023-11-22T05:19:22;102461.06;;;2.46;100.00
79586;BME280;69054;50.866;4.636;2023-11-22T05:21:47;102459.03;;;2.49;100.00
79586;BME280;69054;50.866;4.636;2023-11-22T05:24:13;102466.06;;;2.52;100.00
79586;BME280;69054;50.866;4.636;2023-11-22T05:26:40;102459.63;;;2.40;100.00
79586;BME280;69054;50.866;4.636;2023-11-22T05:29:05;102466.97;;;2.38;100.00
79586;BME280;69054;50.866;4.636;2023-11-22T05:31:31;102461.47;;;2.40;100.00
79586;BME280;69054;50.866;4.636;2023-11-22T05:33:56;102456.19;;;2.38;100.00
79586;BME280;69054;50.866;4.636;2023-11-22T05:36:22;102459.53;;;2.42;100.00
79586;BME280;69054;50.866;4.636;2023-11-22T05:38:47;102454.34;;;2.39;100.00
79586;BME280;69054;50.866;4.636;2023-11-22T05:41:12;102455.13;;;2.41;100.00
79586;BME280;69054;50.866;4.636;2023-11-22T05:43:38;102455.13;;;2.41;100.00
79586;BME280;69054;50.866;4.636;2023-11-22T05:46:04;102455.88;;;2.43;100.00
79586;BME280;69054;50.866;4.636;2023-11-22T05:48:30;102459.34;;;2.45;100.00
79586;BME280;69054;50.866;4.636;2023-11-22T05:50:55;102460.53;;;2.41;100.00
79586;BME280;69054;50.866;4.636;2023-11-22T05:53:21;102452.63;;;2.38;100.00
79586;BME280;69054;50.866;4.636;2023-11-22T05:55:47;102459.75;;;2.39;100.00
79586;BME280;69054;50.866;4.636;2023-11-22T05:58:13;102458.03;;;2.38;100.00
79586;BME280;69054;50.866;4.636;2023-11-22T06:00:45;102455.22;;;2.39;100.00
79586;BME280;69054;50.866;4.636;2023-11-22T06:03:11;102457.81;;;2.41;100.00
79586;BME280;69054;50.866;4.636;2023-11-22T06:05:37;102450.78;;;2.38;100.00
79586;BME280;69054;50.866;4.636;2023-11-22T06:08:02;102449.94;;;2.38;100.00
79586;BME280;69054;50.866;4.636;2023-11-22T06:10:28;102453.38;;;2.40;100.00
79586;BME280;69054;50.866;4.636;2023-11-22T06:12:53;102449.63;;;2.42;100.00
79586;BME280;69054;50.866;4.636;2023-11-22T06:15:18;102460.06;;;2.34;100.00
79586;BME280;69054;50.866;4.636;2023-11-22T06:17:47;102482.31;;;2.38;100.00
79586;BME280;69054;50.866;4.636;2023-11-22T06:20:16;102488.38;;;2.41;100.00
79586;BME280;69054;50.866;4.636;2023-11-22T06:22:42;102473.22;;;2.39;100.00
79586;BME280;69054;50.866;4.636;2023-11-22T06:25:13;102476.81;;;2.39;100.00
79586;BME280;69054;50.866;4.636;2023-11-22T06:27:39;102485.56;;;2.43;100.00
79586;BME280;69054;50.866;4.636;2023-11-22T06:30:06;102490.97;;;2.43;100.00
79586;BME280;69054;50.866;4.636;2023-11-22T06:32:32;102498.00;;;2.45;100.00
79586;BME280;69054;50.866;4.636;2023-11-22T06:34:57;102503.94;;;2.51;100.00
79586;BME280;69054;50.866;4.636;2023-11-22T06:37:23;102481.19;;;2.55;100.00
79586;BME280;69054;50.866;4.636;2023-11-22T06:39:48;102476.97;;;2.51;100.00
79586;BME280;69054;50.866;4.636;2023-11-22T06:42:14;102488.72;;;2.49;100.00
79586;BME280;69054;50.866;4.636;2023-11-22T06:44:39;102492.50;;;2.47;100.00
79586;BME280;69054;50.866;4.636;2023-11-22T06:47:07;102505.78;;;2.50;100.00
79586;BME280;69054;50.866;4.636;2023-11-22T06:49:33;102504.81;;;2.51;100.00
79586;BME280;69054;50.866;4.636;2023-11-22T06:51:59;102516.38;;;2.53;100.00
79586;BME280;69054;50.866;4.636;2023-11-22T06:54:25;102518.00;;;2.56;100.00
79586;BME280;69054;50.866;4.636;2023-11-22T06:56:50;102502.69;;;2.56;100.00
79586;BME280;69054;50.866;4.636;2023-11-22T06:59:16;102497.09;;;2.59;100.00
79586;BME280;69054;50.866;4.636;2023-11-22T07:01:42;102501.13;;;2.66;100.00
79586;BME280;69054;50.866;4.636;2023-11-22T07:04:08;102490.13;;;2.70;100.00
79586;BME280;69054;50.866;4.636;2023-11-22T07:06:33;102488.38;;;2.69;100.00
79586;BME280;69054;50.866;4.636;2023-11-22T07:08:58;102488.91;;;2.74;100.00
79586;BME280;69054;50.866;4.636;2023-11-22T07:11:24;102487.66;;;2.79;100.00
79586;BME280;69054;50.866;4.636;2023-11-22T07:13:51;102485.59;;;2.83;100.00
79586;BME280;69054;50.866;4.636;2023-11-22T07:16:17;102481.06;;;2.83;100.00
79586;BME280;69054;50.866;4.636;2023-11-22T07:18:44;102487.13;;;2.87;100.00
79586;BME280;69054;50.866;4.636;2023-11-22T07:21:10;102491.56;;;2.88;100.00
79586;BME280;69054;50.866;4.636;2023-11-22T07:23:37;102494.06;;;2.91;100.00
79586;BME280;69054;50.866;4.636;2023-11-22T07:26:03;102479.78;;;2.89;100.00
79586;BME280;69054;50.866;4.636;2023-11-22T07:28:28;102485.16;;;2.89;100.00
79586;BME280;69054;50.866;4.636;2023-11-22T07:30:54;102488.88;;;2.88;100.00
79586;BME280;69054;50.866;4.636;2023-11-22T07:33:19;102480.75;;;2.88;100.00
79586;BME280;69054;50.866;4.636;2023-11-22T07:35:46;102488.88;;;2.88;100.00
79586;BME280;69054;50.866;4.636;2023-11-22T07:38:11;102488.56;;;2.93;100.00
79586;BME280;69054;50.866;4.636;2023-11-22T07:40:37;102495.38;;;2.98;100.00
79586;BME280;69054;50.866;4.636;2023-11-22T07:43:02;102507.78;;;3.01;100.00
79586;BME280;69054;50.866;4.636;2023-11-22T07:45:31;102505.75;;;3.05;100.00
79586;BME280;69054;50.866;4.636;2023-11-22T07:47:57;102518.69;;;2.99;100.00
79586;BME280;69054;50.866;4.636;2023-11-22T07:50:27;102525.19;;;2.97;100.00
79586;BME280;69054;50.866;4.636;2023-11-22T07:52:53;102515.03;;;3.00;100.00
79586;BME280;69054;50.866;4.636;2023-11-22T07:55:18;102523.78;;;3.04;100.00
79586;BME280;69054;50.866;4.636;2023-11-22T07:57:44;102535.06;;;3.11;100.00
79586;BME280;69054;50.866;4.636;2023-11-22T08:00:11;102534.84;;;3.14;100.00
79586;BME280;69054;50.866;4.636;2023-11-22T08:02:36;102528.44;;;3.15;100.00
79586;BME280;69054;50.866;4.636;2023-11-22T08:05:04;102523.41;;;3.23;100.00
79586;BME280;69054;50.866;4.636;2023-11-22T08:07:36;102525.56;;;3.31;100.00
79586;BME280;69054;50.866;4.636;2023-11-22T08:10:08;102528.81;;;3.36;100.00
79586;BME280;69054;50.866;4.636;2023-11-22T08:12:47;102536.91;;;3.36;100.00
79586;BME280;69054;50.866;4.636;2023-11-22T08:15:15;102544.59;;;3.42;100.00
79586;BME280;69054;50.866;4.636;2023-11-22T08:17:41;102546.03;;;3.48;100.00
79586;BME280;69054;50.866;4.636;2023-11-22T08:20:08;102562.13;;;3.49;100.00
79586;BME280;69054;50.866;4.636;2023-11-22T08:22:39;102562.66;;;3.42;100.00
79586;BME280;69054;50.866;4.636;2023-11-22T08:25:08;102559.22;;;3.52;100.00
79586;BME280;69054;50.866;4.636;2023-11-22T08:27:37;102564.41;;;3.55;100.00
79586;BME280;69054;50.866;4.636;2023-11-22T08:30:03;102577.59;;;3.60;100.00
79586;BME280;69054;50.866;4.636;2023-11-22T08:32:32;102589.09;;;3.64;100.00
79586;BME280;69054;50.866;4.636;2023-11-22T08:34:58;102582.69;;;3.65;100.00
79586;BME280;69054;50.866;4.636;2023-11-22T08:37:24;102592.00;;;3.73;100.00
79586;BME280;69054;50.866;4.636;2023-11-22T08:39:50;102587.81;;;3.82;100.00
79586;BME280;69054;50.866;4.636;2023-11-22T08:42:15;102577.84;;;3.96;100.00
79586;BME280;69054;50.866;4.636;2023-11-22T08:44:41;102569.41;;;4.00;100.00
79586;BME280;69054;50.866;4.636;2023-11-22T08:47:06;102575.69;;;4.14;100.00
79586;BME280;69054;50.866;4.636;2023-11-22T08:49:33;102583.25;;;4.21;100.00
79586;BME280;69054;50.866;4.636;2023-11-22T08:51:59;102582.47;;;4.32;100.00
79586;BME280;69054;50.866;4.636;2023-11-22T08:54:25;102571.53;;;4.34;100.00
79586;BME280;69054;50.866;4.636;2023-11-22T08:56:57;102566.78;;;4.24;100.00
79586;BME280;69054;50.866;4.636;2023-11-22T08:59:22;102585.28;;;4.18;100.00
79586;BME280;69054;50.866;4.636;2023-11-22T09:01:47;102593.41;;;4.18;100.00
79586;BME280;69054;50.866;4.636;2023-11-22T09:04:13;102600.56;;;4.32;100.00
79586;BME280;69054;50.866;4.636;2023-11-22T09:06:39;102612.44;;;4.42;100.00
79586;BME280;69054;50.866;4.636;2023-11-22T09:09:04;102608.75;;;4.43;100.00
79586;BME280;69054;50.866;4.636;2023-11-22T09:11:30;102617.25;;;4.25;100.00
79586;BME280;69054;50.866;4.636;2023-11-22T09:13:56;102597.75;;;4.20;100.00
79586;BME280;69054;50.866;4.636;2023-11-22T09:16:23;102611.72;;;4.27;100.00
79586;BME280;69054;50.866;4.636;2023-11-22T09:18:50;102617.22;;;4.38;100.00
79586;BME280;69054;50.866;4.636;2023-11-22T09:21:16;102614.91;;;4.45;100.00
79586;BME280;69054;50.866;4.636;2023-11-22T09:23:42;102622.28;;;4.43;100.00
79586;BME280;69054;50.866;4.636;2023-11-22T09:26:08;102622.84;;;4.48;100.00
79586;BME280;69054;50.866;4.636;2023-11-22T09:28:34;102619.03;;;4.64;100.00
79586;BME280;69054;50.866;4.636;2023-11-22T09:31:01;102616.25;;;4.76;100.00
79586;BME280;69054;50.866;4.636;2023-11-22T09:33:31;102617.31;;;4.87;100.00
79586;BME280;69054;50.866;4.636;2023-11-22T09:35:57;102614.84;;;5.08;100.00
79586;BME280;69054;50.866;4.636;2023-11-22T09:38:25;102618.50;;;5.20;100.00
79586;BME280;69054;50.866;4.636;2023-11-22T09:40:51;102617.78;;;5.29;100.00
79586;BME280;69054;50.866;4.636;2023-11-22T09:43:18;102616.25;;;5.38;100.00
79586;BME280;69054;50.866;4.636;2023-11-22T09:45:46;102627.13;;;5.49;100.00
79586;BME280;69054;50.866;4.636;2023-11-22T09:53:11;102642.69;;;5.58;100.00
79586;BME280;69054;50.866;4.636;2023-11-22T09:55:41;102641.84;;;5.69;100.00
79586;BME280;69054;50.866;4.636;2023-11-22T09:58:08;102639.91;;;5.71;100.00
79586;BME280;69054;50.866;4.636;2023-11-22T10:00:35;102646.06;;;5.73;100.00
79586;BME280;69054;50.866;4.636;2023-11-22T10:03:00;102643.81;;;5.67;100.00
79586;BME280;69054;50.866;4.636;2023-11-22T10:05:26;102646.56;;;5.78;100.00
79586;BME280;69054;50.866;4.636;2023-11-22T10:07:54;102643.81;;;5.67;100.00
79586;BME280;69054;50.866;4.636;2023-11-22T10:10:21;102639.53;;;5.76;100.00
79586;BME280;69054;50.866;4.636;2023-11-22T10:12:48;102624.41;;;5.49;100.00
79586;BME280;69054;50.866;4.636;2023-11-22T10:15:15;102621.78;;;5.36;100.00
79586;BME280;69054;50.866;4.636;2023-11-22T10:17:47;102622.47;;;5.27;100.00
79586;BME280;69054;50.866;4.636;2023-11-22T10:20:18;102622.19;;;5.19;100.00
79586;BME280;69054;50.866;4.636;2023-11-22T10:22:45;102617.44;;;5.09;100.00
79586;BME280;69054;50.866;4.636;2023-11-22T10:25:11;102624.53;;;5.23;100.00
79586;BME280;69054;50.866;4.636;2023-11-22T10:27:38;102622.97;;;5.32;100.00
79586;BME280;69054;50.866;4.636;2023-11-22T10:30:04;102606.25;;;5.38;100.00
79586;BME280;69054;50.866;4.636;2023-11-22T10:32:30;102606.59;;;5.33;100.00
79586;BME280;69054;50.866;4.636;2023-11-22T10:34:55;102616.47;;;5.35;100.00
79586;BME280;69054;50.866;4.636;2023-11-22T10:37:21;102625.38;;;5.24;100.00
79586;BME280;69054;50.866;4.636;2023-11-22T10:39:52;102623.50;;;5.13;100.00
79586;BME280;69054;50.866;4.636;2023-11-22T10:42:19;102623.03;;;5.19;100.00
79586;BME280;69054;50.866;4.636;2023-11-22T10:44:45;102619.19;;;5.35;100.00
79586;BME280;69054;50.866;4.636;2023-11-22T10:47:14;102631.81;;;5.47;100.00
79586;BME280;69054;50.866;4.636;2023-11-22T10:49:40;102640.13;;;5.68;100.00
79586;BME280;69054;50.866;4.636;2023-11-22T10:52:07;102644.19;;;5.74;100.00
79586;BME280;69054;50.866;4.636;2023-11-22T10:54:34;102641.84;;;5.69;100.00
79586;BME280;69054;50.866;4.636;2023-11-22T10:57:02;102641.13;;;5.78;100.00
79586;BME280;69054;50.866;4.636;2023-11-22T10:59:30;102635.69;;;5.78;100.00
79586;BME280;69054;50.866;4.636;2023-11-22T11:02:00;102622.84;;;5.69;100.00
79586;BME280;69054;50.866;4.636;2023-11-22T11:04:34;102620.69;;;5.85;100.00
79586;BME280;69054;50.866;4.636;2023-11-22T11:07:03;102620.19;;;5.80;100.00
79586;BME280;69054;50.866;4.636;2023-11-22T11:09:29;102601.75;;;5.61;100.00
79586;BME280;69054;50.866;4.636;2023-11-22T11:11:58;102597.47;;;5.70;100.00
79586;BME280;69054;50.866;4.636;2023-11-22T11:14:25;102591.69;;;5.75;100.00
79586;BME280;69054;50.866;4.636;2023-11-22T11:16:52;102579.38;;;5.93;100.00
79586;BME280;69054;50.866;4.636;2023-11-22T11:19:20;102569.94;;;6.33;100.00
79586;BME280;69054;50.866;4.636;2023-11-22T11:21:50;102572.63;;;6.44;98.45
79586;BME280;69054;50.866;4.636;2023-11-22T11:24:16;102555.47;;;6.99;93.65
79586;BME280;69054;50.866;4.636;2023-11-22T11:26:48;102563.63;;;6.99;91.49
79586;BME280;69054;50.866;4.636;2023-11-22T11:29:34;102577.28;;;6.76;92.77
79586;BME280;69054;50.866;4.636;2023-11-22T11:32:04;102578.03;;;6.55;95.09
79586;BME280;69054;50.866;4.636;2023-11-22T11:34:31;102589.53;;;6.25;94.63
79586;BME280;69054;50.866;4.636;2023-11-22T11:36:59;102586.34;;;6.43;98.80
79586;BME280;69054;50.866;4.636;2023-11-22T11:39:26;102578.13;;;6.88;92.42
79586;BME280;69054;50.866;4.636;2023-11-22T11:42:10;102568.88;;;6.79;94.91
79586;BME280;69054;50.866;4.636;2023-11-22T11:44:36;102570.78;;;7.95;90.68
79586;BME280;69054;50.866;4.636;2023-11-22T11:47:11;102565.25;;;9.08;82.28
79586;BME280;69054;50.866;4.636;2023-11-22T11:49:40;102566.00;;;9.96;77.39
79586;BME280;69054;50.866;4.636;2023-11-22T11:52:05;102558.47;;;11.01;71.72
79586;BME280;69054;50.866;4.636;2023-11-22T11:54:32;102551.13;;;11.64;68.92
79586;BME280;69054;50.866;4.636;2023-11-22T11:56:59;102551.50;;;12.21;67.73
79586;BME280;69054;50.866;4.636;2023-11-22T11:59:25;102552.91;;;12.25;65.19
79586;BME280;69054;50.866;4.636;2023-11-22T12:01:54;102553.78;;;12.00;69.86
79586;BME280;69054;50.866;4.636;2023-11-22T12:04:23;102549.28;;;11.46;66.92
79586;BME280;69054;50.866;4.636;2023-11-22T12:06:49;102540.00;;;10.85;69.12
79586;BME280;69054;50.866;4.636;2023-11-22T12:09:25;102546.38;;;9.83;71.94
79586;BME280;69054;50.866;4.636;2023-11-22T12:11:51;102539.88;;;9.07;76.02
79586;BME280;69054;50.866;4.636;2023-11-22T12:14:19;102534.75;;;8.44;79.34
79586;BME280;69054;50.866;4.636;2023-11-22T12:16:44;102531.13;;;8.03;81.87
79586;BME280;69054;50.866;4.636;2023-11-22T12:19:24;102525.38;;;7.75;85.23
79586;BME280;69054;50.866;4.636;2023-11-22T12:21:50;102536.97;;;7.98;82.30
79586;BME280;69054;50.866;4.636;2023-11-22T12:24:15;102517.47;;;8.24;85.35
79586;BME280;69054;50.866;4.636;2023-11-22T12:26:47;102519.63;;;8.40;83.45
79586;BME280;69054;50.866;4.636;2023-11-22T12:29:14;102523.56;;;8.47;83.58
79586;BME280;69054;50.866;4.636;2023-11-22T12:31:50;102520.34;;;8.32;81.53
79586;BME280;69054;50.866;4.636;2023-11-22T12:34:17;102518.94;;;8.07;83.50
79586;BME280;69054;50.866;4.636;2023-11-22T12:36:43;102515.41;;;7.85;84.76
79586;BME280;69054;50.866;4.636;2023-11-22T12:39:09;102495.94;;;7.80;85.68
79586;BME280;69054;50.866;4.636;2023-11-22T12:41:51;102500.72;;;7.67;86.34
79586;BME280;69054;50.866;4.636;2023-11-22T12:44:17;102500.25;;;7.61;85.95
79586;BME280;69054;50.866;4.636;2023-11-22T12:49:14;102508.16;;;7.64;85.37
79586;BME280;69054;50.866;4.636;2023-11-22T12:51:46;102497.94;;;7.57;84.07
79586;BME280;69054;50.866;4.636;2023-11-22T12:54:12;102503.56;;;7.65;86.76